createdAt,value
2022-11-03T00:01:36.285Z,101857.59
2022-11-03T00:04:04.563Z,101858.88
2022-11-03T00:06:32.630Z,101857.38
2022-11-03T00:09:01.562Z,101853.91
2022-11-03T00:11:33.166Z,101855.69
2022-11-03T00:14:01.084Z,101857.69
2022-11-03T00:16:29.063Z,101854.22
2022-11-03T00:18:56.837Z,101847.50
2022-11-03T00:21:24.777Z,101846.66
2022-11-03T00:23:52.947Z,101849.56
2022-11-03T00:26:22.382Z,101844.78
2022-11-03T00:28:53.508Z,101837.25
2022-11-03T00:31:23.089Z,101861.53
2022-11-03T00:33:51.349Z,101854.94
2022-11-03T00:36:21.200Z,101874.03
2022-11-03T00:38:49.373Z,101878.38
2022-11-03T00:41:17.839Z,101867.81
2022-11-03T00:43:45.633Z,101862.44
2022-11-03T00:46:15.154Z,101865.94
2022-11-03T00:48:42.953Z,101866.69
2022-11-03T00:51:12.268Z,101866.66
2022-11-03T00:53:42.144Z,101876.09
2022-11-03T00:56:14.133Z,101885.97
2022-11-03T00:58:42.556Z,101887.56
2022-11-03T01:01:13.391Z,101879.41
2022-11-03T01:04:05.783Z,101895.66
2022-11-03T01:06:51.756Z,101892.22
2022-11-03T01:09:20.255Z,101892.81
2022-11-03T01:11:55.307Z,101893.31
2022-11-03T01:14:23.228Z,101883.03
2022-11-03T01:16:50.943Z,101865.75
2022-11-03T01:19:20.261Z,101862.25
2022-11-03T01:21:48.109Z,101855.34
2022-11-03T01:24:15.831Z,101854.50
2022-11-03T01:26:43.573Z,101862.28
2022-11-03T01:29:11.291Z,101876.59
2022-11-03T01:31:38.978Z,101863.53
2022-11-03T01:34:06.744Z,101855.78
2022-11-03T01:36:35.799Z,101849.91
2022-11-03T01:39:03.529Z,101841.88
2022-11-03T01:41:31.272Z,101832.13
2022-11-03T01:44:41.473Z,101829.09
2022-11-03T01:47:27.342Z,101828.97
2022-11-03T01:49:58.319Z,101828.91
2022-11-03T01:52:33.996Z,101823.66
2022-11-03T01:55:05.332Z,101810.59
2022-11-03T01:57:37.492Z,101803.16
2022-11-03T02:00:06.730Z,101795.09
2022-11-03T02:02:34.655Z,101784.69
2022-11-03T02:05:05.853Z,101770.19
2022-11-03T02:07:41.297Z,101758.75
2022-11-03T02:10:10.370Z,101753.56
2022-11-03T02:12:38.585Z,101735.22
2022-11-03T02:15:09.936Z,101712.25
2022-11-03T02:17:39.043Z,101706.91
2022-11-03T02:20:11.154Z,101667.88
2022-11-03T02:23:06.167Z,101673.44
2022-11-03T02:25:54.253Z,101664.59
2022-11-03T02:28:25.244Z,101649.13
2022-11-03T02:31:00.216Z,101633.53
2022-11-03T02:33:37.963Z,101624.81
2022-11-03T02:36:12.636Z,101614.44
2022-11-03T02:38:55.312Z,101608.94
2022-11-03T02:41:26.129Z,101578.78
2022-11-03T02:43:56.255Z,101552.31
2022-11-03T02:46:26.738Z,101521.25
2022-11-03T02:48:54.536Z,101499.69
2022-11-03T02:51:22.305Z,101492.00
2022-11-03T02:54:03.042Z,101480.75
2022-11-03T02:56:32.985Z,101465.09
2022-11-03T02:59:03.263Z,101466.66
2022-11-03T03:01:47.417Z,101458.25
2022-11-03T03:04:22.522Z,101460.75
2022-11-03T03:06:54.406Z,101443.88
2022-11-03T03:09:26.106Z,101455.53
2022-11-03T03:11:57.969Z,101453.72
2022-11-03T03:14:31.679Z,101444.72
2022-11-03T03:17:01.951Z,101441.94
2022-11-03T03:19:45.233Z,101437.78
2022-11-03T03:22:19.811Z,101424.19
2022-11-03T03:24:54.549Z,101437.13
2022-11-03T03:27:27.607Z,101433.16
2022-11-03T03:29:59.637Z,101428.88
2022-11-03T03:32:30.396Z,101433.06
2022-11-03T03:35:00.462Z,101431.66
2022-11-03T03:37:30.395Z,101419.63
2022-11-03T03:40:04.686Z,101414.16
2022-11-03T03:42:37.316Z,101417.41
2022-11-03T03:45:07.496Z,101400.44
2022-11-03T03:47:38.687Z,101395.31
2022-11-03T03:50:07.606Z,101385.88
2022-11-03T03:52:38.467Z,101389.63
2022-11-03T03:55:15.334Z,101394.78
2022-11-03T03:57:45.299Z,101383.81
2022-11-03T04:00:16.028Z,101366.38
2022-11-03T04:02:43.917Z,101376.13
2022-11-03T04:05:11.677Z,101389.44
2022-11-03T04:07:48.148Z,101366.97
2022-11-03T04:10:16.365Z,101375.53
2022-11-03T04:13:03.855Z,101370.59
2022-11-03T04:15:50.160Z,101363.75
2022-11-03T04:18:36.362Z,101357.28
2022-11-03T04:21:22.078Z,101384.78
2022-11-03T04:23:50.030Z,101382.06
2022-11-03T04:26:22.859Z,101379.63
2022-11-03T04:28:54.089Z,101377.13
2022-11-03T04:31:22.495Z,101363.38
2022-11-03T04:33:53.880Z,101348.31
2022-11-03T04:36:23.543Z,101362.63
2022-11-03T04:38:52.429Z,101359.34
2022-11-03T04:41:23.010Z,101354.38
2022-11-03T04:43:53.696Z,101349.03
2022-11-03T04:46:26.374Z,101353.41
2022-11-03T04:48:54.835Z,101359.47
2022-11-03T04:51:26.479Z,101365.78
2022-11-03T04:53:56.566Z,101362.03
2022-11-03T04:56:26.314Z,101374.31
2022-11-03T04:58:55.477Z,101362.69
2022-11-03T05:01:25.111Z,101367.66
2022-11-03T05:03:56.529Z,101371.50
2022-11-03T05:06:27.972Z,101365.03
2022-11-03T05:08:59.672Z,101364.47
2022-11-03T05:11:32.616Z,101368.50
2022-11-03T05:14:04.156Z,101367.09
2022-11-03T05:16:32.752Z,101359.13
2022-11-03T05:19:01.164Z,101359.22
2022-11-03T05:21:29.381Z,101322.19
2022-11-03T05:24:02.402Z,101331.53
2022-11-03T05:26:33.855Z,101321.78
2022-11-03T05:29:04.860Z,101324.56
2022-11-03T05:31:36.424Z,101335.31
2022-11-03T05:34:14.207Z,101332.09
2022-11-03T05:36:41.986Z,101329.31
2022-11-03T05:39:26.994Z,101348.28
2022-11-03T05:41:57.435Z,101361.59
2022-11-03T05:44:36.651Z,101359.78
2022-11-03T05:47:10.287Z,101364.47
2022-11-03T05:49:38.074Z,101368.13
2022-11-03T05:52:07.095Z,101380.94
2022-11-03T05:54:35.911Z,101383.94
2022-11-03T05:57:03.639Z,101385.19
2022-11-03T05:59:32.675Z,101382.41
2022-11-03T06:02:02.073Z,101389.25
2022-11-03T06:04:33.795Z,101378.00
2022-11-03T06:07:04.188Z,101378.06
2022-11-03T06:09:34.818Z,101376.03
2022-11-03T06:12:06.654Z,101382.66
2022-11-03T06:14:37.629Z,101376.88
2022-11-03T06:17:07.278Z,101363.81
2022-11-03T06:19:39.213Z,101366.03
2022-11-03T06:22:15.408Z,101366.16
2022-11-03T06:24:43.681Z,101345.97
2022-11-03T06:27:14.272Z,101344.06
2022-11-03T06:29:48.700Z,101358.78
2022-11-03T06:32:16.449Z,101363.91
2022-11-03T06:34:49.568Z,101356.44
2022-11-03T06:37:21.524Z,101360.19
2022-11-03T06:39:50.796Z,101345.22
2022-11-03T06:42:22.129Z,101347.75
2022-11-03T06:44:52.640Z,101341.56
2022-11-03T06:47:24.698Z,101342.31
2022-11-03T06:49:54.256Z,101341.03
2022-11-03T06:52:26.718Z,101335.47
2022-11-03T06:55:00.529Z,101327.41
2022-11-03T06:57:28.693Z,101340.59
2022-11-03T07:00:13.244Z,101324.06
2022-11-03T07:02:56.717Z,101319.53
2022-11-03T07:05:26.368Z,101312.50
2022-11-03T07:07:56.125Z,101315.34
2022-11-03T07:10:38.428Z,101316.13
2022-11-03T07:13:18.959Z,101319.41
2022-11-03T07:15:48.708Z,101309.25
2022-11-03T07:18:29.715Z,101305.78
2022-11-03T07:21:03.075Z,101301.63
2022-11-03T07:23:32.514Z,101301.56
2022-11-03T07:26:02.276Z,101296.88
2022-11-03T07:28:35.285Z,101286.66
2022-11-03T07:31:16.443Z,101282.06
2022-11-03T07:33:45.088Z,101295.75
2022-11-03T07:36:17.830Z,101284.41
2022-11-03T07:38:49.204Z,101268.81
2022-11-03T07:41:21.575Z,101247.81
2022-11-03T07:43:54.414Z,101234.34
2022-11-03T07:46:26.073Z,101230.16
2022-11-03T07:48:56.586Z,101214.19
2022-11-03T07:51:27.191Z,101202.91
2022-11-03T07:53:58.984Z,101176.31
2022-11-03T07:56:28.953Z,101135.25
2022-11-03T07:59:01.121Z,101101.75
2022-11-03T08:01:32.552Z,101090.72
2022-11-03T08:04:05.387Z,101084.03
2022-11-03T08:06:35.090Z,101050.41
2022-11-03T08:09:07.718Z,101028.47
2022-11-03T08:11:35.429Z,101041.13
2022-11-03T08:14:09.841Z,101005.22
2022-11-03T08:16:39.167Z,101013.41
2022-11-03T08:19:07.155Z,101023.84
2022-11-03T08:21:35.527Z,101013.31
2022-11-03T08:24:03.519Z,100998.91
2022-11-03T08:26:34.341Z,100994.50
2022-11-03T08:29:02.040Z,101000.81
2022-11-03T08:31:29.740Z,100975.31
2022-11-03T08:33:58.829Z,100956.34
2022-11-03T08:36:26.588Z,100943.59
2022-11-03T08:38:54.455Z,100940.66
2022-11-03T08:41:22.154Z,100924.59
2022-11-03T08:43:51.292Z,100908.53
2022-11-03T08:46:19.028Z,100895.44
2022-11-03T08:48:47.589Z,100900.91
2022-11-03T08:51:17.407Z,100886.81
2022-11-03T08:53:46.276Z,100892.44
2022-11-03T08:56:16.989Z,100876.84
2022-11-03T08:58:47.028Z,100898.69
2022-11-03T09:01:15.532Z,100887.50
2022-11-03T09:03:43.446Z,100874.81
2022-11-03T09:06:11.593Z,100859.31
2022-11-03T09:11:28.299Z,100850.72
2022-11-03T09:13:57.728Z,100828.94
2022-11-03T09:16:25.433Z,100818.25
2022-11-03T09:18:55.559Z,100808.97
2022-11-03T09:21:23.622Z,100800.00
2022-11-03T09:23:55.248Z,100804.69
2022-11-03T09:26:23.688Z,101236.41
2022-11-03T09:28:51.444Z,101070.56
2022-11-03T09:31:19.508Z,101122.00
2022-11-03T09:33:47.256Z,101132.72
2022-11-03T09:36:15.123Z,101094.00
2022-11-03T09:38:43.011Z,101091.84
2022-11-03T09:41:26.611Z,101117.81
2022-11-03T09:43:58.575Z,101107.91
2022-11-03T09:46:27.966Z,101051.56
2022-11-03T09:48:56.923Z,101060.06
2022-11-03T09:51:27.314Z,101039.63
2022-11-03T09:53:57.809Z,101013.28
2022-11-03T09:56:28.976Z,100995.19
2022-11-03T09:58:56.704Z,101004.41
2022-11-03T10:01:24.650Z,101032.72
2022-11-03T10:03:52.832Z,101014.31
2022-11-03T10:06:21.345Z,101048.44
2022-11-03T10:08:50.308Z,101050.88
2022-11-03T10:11:18.115Z,101112.69
2022-11-03T10:13:52.909Z,101154.91
2022-11-03T10:16:24.204Z,101152.84
2022-11-03T10:18:53.065Z,101164.16
2022-11-03T10:21:24.823Z,101146.16
2022-11-03T10:23:52.632Z,101148.56
2022-11-03T10:26:21.580Z,101186.94
2022-11-03T10:29:09.790Z,101161.56
2022-11-03T10:31:39.265Z,101148.53
2022-11-03T10:34:08.180Z,101151.31
2022-11-03T10:36:36.320Z,101166.72
2022-11-03T10:39:25.641Z,101158.97
2022-11-03T10:41:58.381Z,101185.69
2022-11-03T10:44:29.662Z,101175.50
2022-11-03T10:46:59.365Z,101182.41
2022-11-03T10:49:29.355Z,101147.38
2022-11-03T10:52:06.170Z,101133.34
2022-11-03T10:54:36.136Z,101121.03
2022-11-03T10:57:03.912Z,101128.94
2022-11-03T10:59:36.827Z,101104.56
2022-11-03T11:02:11.718Z,101101.72
2022-11-03T11:04:39.553Z,101065.91
2022-11-03T11:07:23.263Z,101052.97
2022-11-03T11:09:51.071Z,101026.16
2022-11-03T11:12:21.868Z,101025.97
2022-11-03T11:14:56.619Z,100995.72
2022-11-03T11:17:42.619Z,101001.44
2022-11-03T11:20:34.319Z,100969.22
2022-11-03T11:23:48.335Z,100954.88
2022-11-03T11:26:33.001Z,100965.97
2022-11-03T11:29:43.976Z,100920.06
2022-11-03T11:32:53.511Z,100920.09
2022-11-03T11:36:03.784Z,100913.34
2022-11-03T11:39:06.825Z,100911.31
2022-11-03T11:42:13.317Z,100906.22
2022-11-03T11:44:54.018Z,100920.50
2022-11-03T11:47:28.457Z,100926.44
2022-11-03T11:50:27.938Z,100896.75
2022-11-03T11:53:27.511Z,100941.38
2022-11-03T11:56:00.573Z,100948.34
2022-11-03T11:58:42.698Z,100969.09
2022-11-03T12:01:23.040Z,100961.66
2022-11-03T12:03:53.304Z,101034.53
2022-11-03T12:06:34.491Z,101049.94
2022-11-03T12:09:07.013Z,101031.88
2022-11-03T12:11:46.074Z,101064.59
2022-11-03T12:14:27.241Z,101042.59
2022-11-03T12:16:55.429Z,101051.75
2022-11-03T12:19:38.786Z,101075.09
2022-11-03T12:22:08.901Z,101059.78
2022-11-03T12:24:48.647Z,101029.25
2022-11-03T12:27:40.688Z,100992.63
2022-11-03T12:30:15.196Z,100937.88
2022-11-03T12:32:42.894Z,100936.88
2022-11-03T12:35:13.561Z,100960.94
2022-11-03T12:37:42.095Z,100973.41
2022-11-03T12:40:13.320Z,100980.91
2022-11-03T12:42:41.020Z,100971.16
2022-11-03T12:45:12.415Z,100953.13
2022-11-03T12:47:40.142Z,100944.34
2022-11-03T12:50:08.219Z,100982.25
2022-11-03T12:52:35.976Z,100955.22
2022-11-03T12:55:04.060Z,100937.19
2022-11-03T12:57:31.804Z,100925.28
2022-11-03T12:59:59.507Z,100881.75
2022-11-03T13:02:28.764Z,100869.84
2022-11-03T13:04:56.601Z,100864.41
2022-11-03T13:07:30.373Z,100870.44
2022-11-03T13:10:01.853Z,100862.88
2022-11-03T13:12:32.219Z,100835.22
2022-11-03T13:15:02.545Z,100817.69
2022-11-03T13:17:40.402Z,100815.53
2022-11-03T13:20:16.184Z,100784.06
2022-11-03T13:22:44.144Z,100782.94
2022-11-03T13:25:11.914Z,100776.75
2022-11-03T13:27:39.649Z,100778.53
2022-11-03T13:30:09.559Z,100747.09
2022-11-03T13:32:38.664Z,100720.19
2022-11-03T13:35:12.376Z,100721.50
2022-11-03T13:37:41.831Z,100713.31
2022-11-03T13:40:29.261Z,100697.00
2022-11-03T13:42:59.837Z,100685.44
2022-11-03T13:45:27.614Z,100702.28
2022-11-03T13:48:48.503Z,100687.06
2022-11-03T13:50:45.350Z,100676.88
2022-11-03T13:56:05.833Z,100644.19
2022-11-03T14:01:24.262Z,100642.72
2022-11-03T14:06:41.721Z,100620.06
2022-11-03T14:09:10.355Z,100628.22
2022-11-03T14:11:55.702Z,100619.03
2022-11-03T14:14:25.636Z,100641.94
2022-11-03T14:16:53.449Z,100637.88
2022-11-03T14:19:29.428Z,100619.75
2022-11-03T14:22:01.540Z,100616.63
2022-11-03T14:24:29.404Z,100621.47
2022-11-03T14:26:57.148Z,100610.13
2022-11-03T14:29:24.912Z,100597.66
2022-11-03T14:31:52.575Z,100602.13
2022-11-03T14:34:20.355Z,100603.84
2022-11-03T14:36:52.118Z,100585.16
2022-11-03T14:39:20.035Z,100565.78
2022-11-03T14:42:04.756Z,100590.72
2022-11-03T14:44:33.705Z,100573.19
2022-11-03T14:47:02.674Z,100557.94
2022-11-03T14:49:30.674Z,100558.28
2022-11-03T14:52:01.666Z,100543.78
2022-11-03T14:54:30.518Z,100537.31
2022-11-03T14:56:58.509Z,100527.69
2022-11-03T14:59:27.178Z,100528.25
2022-11-03T15:01:55.947Z,100521.97
2022-11-03T15:04:24.051Z,100513.16
2022-11-03T15:06:54.497Z,100515.66
2022-11-03T15:09:23.670Z,100503.66
2022-11-03T15:11:51.688Z,100494.03
2022-11-03T15:14:19.457Z,100486.44
2022-11-03T15:16:48.023Z,100471.59
2022-11-03T15:19:15.783Z,100472.13
2022-11-03T15:21:43.680Z,100468.47
2022-11-03T15:27:00.807Z,100445.16
2022-11-03T15:29:28.549Z,100427.53
2022-11-03T15:31:56.225Z,100423.09
2022-11-03T15:34:24.020Z,100434.78
2022-11-03T15:36:51.748Z,100414.88
2022-11-03T15:39:19.469Z,100410.63
2022-11-03T15:41:47.304Z,100402.22
2022-11-03T15:44:18.661Z,100404.19
2022-11-03T15:46:46.379Z,100394.16
2022-11-03T15:49:14.070Z,100389.19
2022-11-03T15:51:41.750Z,100389.06
2022-11-03T15:54:09.511Z,100386.91
2022-11-03T15:56:37.247Z,100382.38
2022-11-03T15:59:04.988Z,100367.66
2022-11-03T16:01:35.194Z,100364.22
2022-11-03T16:04:02.944Z,100360.09
2022-11-03T16:09:18.386Z,100364.00
2022-11-03T16:11:47.318Z,100352.94
2022-11-03T16:14:16.375Z,100345.16
2022-11-03T16:16:45.874Z,100343.69
2022-11-03T16:19:13.604Z,100339.50
2022-11-03T16:21:41.437Z,100340.50
2022-11-03T16:24:09.740Z,100339.59
2022-11-03T16:26:37.515Z,100331.34
2022-11-03T16:29:05.212Z,100324.28
2022-11-03T16:31:32.907Z,100326.34
2022-11-03T16:34:02.771Z,100315.34
2022-11-03T16:36:30.810Z,100318.34
2022-11-03T16:38:58.540Z,100314.09
2022-11-03T16:41:26.353Z,100310.94
2022-11-03T16:43:54.085Z,100295.97
2022-11-03T16:46:21.836Z,100292.41
2022-11-03T16:48:49.730Z,100297.44
2022-11-03T16:51:19.362Z,100299.25
2022-11-03T16:53:47.074Z,100298.78
2022-11-03T16:56:14.891Z,100289.84
2022-11-03T16:58:42.583Z,100297.03
2022-11-03T17:01:10.306Z,100291.94
2022-11-03T17:03:38.086Z,100297.31
2022-11-03T17:06:06.171Z,100291.94
2022-11-03T17:11:36.745Z,100287.06
2022-11-03T17:14:06.169Z,100307.88
2022-11-03T17:16:34.258Z,100293.84
2022-11-03T17:19:02.066Z,100286.31
2022-11-03T17:21:29.797Z,100270.75
2022-11-03T17:24:00.224Z,100266.88
2022-11-03T17:26:42.073Z,100269.66
2022-11-03T17:29:16.369Z,100260.84
2022-11-03T17:31:44.197Z,100252.13
2022-11-03T17:34:12.978Z,100244.75
2022-11-03T17:36:41.213Z,100246.03
2022-11-03T17:39:14.785Z,100243.34
2022-11-03T17:41:42.743Z,100230.13
2022-11-03T17:44:12.495Z,100239.00
2022-11-03T17:46:40.385Z,100232.84
2022-11-03T17:49:08.140Z,100235.16
2022-11-03T17:51:38.320Z,100236.09
2022-11-03T17:54:08.141Z,100223.34
2022-11-03T17:56:37.298Z,100225.66
2022-11-03T17:59:05.663Z,100208.56
2022-11-03T18:01:33.676Z,100213.72
2022-11-03T18:04:02.722Z,100208.88
2022-11-03T18:06:30.740Z,100210.44
2022-11-03T18:08:59.347Z,100203.75
2022-11-03T18:11:47.271Z,100199.47
2022-11-03T18:14:16.944Z,100194.38
2022-11-03T18:16:44.671Z,100184.03
2022-11-03T18:19:13.646Z,100188.38
2022-11-03T18:21:42.011Z,100181.13
2022-11-03T18:24:13.334Z,100178.25
2022-11-03T18:26:41.239Z,100169.13
2022-11-03T18:29:09.271Z,100174.56
2022-11-03T18:31:44.005Z,100172.75
2022-11-03T18:34:15.835Z,100173.84
2022-11-03T18:36:44.345Z,100167.56
2022-11-03T18:39:17.878Z,100150.91
2022-11-03T18:41:45.948Z,100151.06
2022-11-03T18:44:18.753Z,100153.91
2022-11-03T18:46:48.168Z,100149.19
2022-11-03T18:49:16.771Z,100128.84
2022-11-03T18:51:48.599Z,100137.63
2022-11-03T18:54:21.623Z,100139.59
2022-11-03T18:56:50.333Z,100131.81
2022-11-03T18:59:23.745Z,100121.44
2022-11-03T19:01:53.299Z,100132.13
2022-11-03T19:04:21.152Z,100116.41
2022-11-03T19:06:50.651Z,100099.53
2022-11-03T19:09:24.708Z,100107.44
2022-11-03T19:11:55.855Z,100108.38
2022-11-03T19:14:27.575Z,100100.34
2022-11-03T19:19:45.553Z,100070.75
2022-11-03T19:22:14.794Z,100059.22
2022-11-03T19:24:42.916Z,100033.69
2022-11-03T19:27:16.191Z,100020.97
2022-11-03T19:29:47.216Z,100042.50
2022-11-03T19:32:21.840Z,100034.78
2022-11-03T19:34:56.092Z,100032.19
2022-11-03T19:37:23.896Z,100032.88
2022-11-03T19:39:51.699Z,100032.47
2022-11-03T19:42:29.308Z,100028.66
2022-11-03T19:44:58.143Z,100031.72
2022-11-03T19:47:32.581Z,100034.88
2022-11-03T19:50:02.492Z,100040.06
2022-11-03T19:52:31.329Z,100031.47
2022-11-03T19:55:01.987Z,100040.25
2022-11-03T19:57:29.765Z,100028.47
2022-11-03T19:59:59.091Z,100021.69
2022-11-03T20:02:29.789Z,100023.19
2022-11-03T20:04:58.988Z,100021.28
2022-11-03T20:07:31.528Z,100013.97
2022-11-03T20:10:00.935Z,100017.00
2022-11-03T20:12:30.867Z,100022.53
2022-11-03T20:15:01.642Z,100000.41
2022-11-03T20:17:30.764Z,99997.19
2022-11-03T20:19:58.465Z,99991.59
2022-11-03T20:22:30.180Z,99981.41
2022-11-03T20:25:03.170Z,99976.41
2022-11-03T20:27:30.945Z,99993.19
2022-11-03T20:29:58.688Z,99987.31
2022-11-03T20:32:26.422Z,99991.41
2022-11-03T20:34:55.759Z,99990.91
2022-11-03T20:37:23.502Z,99991.97
2022-11-03T20:39:51.300Z,99989.47
2022-11-03T20:42:22.420Z,99991.63
2022-11-03T20:44:50.664Z,99973.63
2022-11-03T20:47:18.996Z,99981.69
2022-11-03T20:49:46.865Z,99980.75
2022-11-03T20:52:17.125Z,99983.53
2022-11-03T20:54:45.153Z,99976.34
2022-11-03T20:57:14.392Z,99974.72
2022-11-03T20:59:42.201Z,99974.19
2022-11-03T21:02:12.227Z,99962.88
2022-11-03T21:04:40.947Z,99970.91
2022-11-03T21:07:12.139Z,99959.03
2022-11-03T21:09:41.418Z,99944.06
2022-11-03T21:12:13.111Z,99934.16
2022-11-03T21:15:04.037Z,99931.53
2022-11-03T21:17:49.176Z,99928.53
2022-11-03T21:20:17.059Z,99915.94
2022-11-03T21:22:53.723Z,99926.69
2022-11-03T21:25:24.961Z,99919.72
2022-11-03T21:27:54.466Z,99917.03
2022-11-03T21:30:23.263Z,99917.59
2022-11-03T21:32:51.124Z,99934.53
2022-11-03T21:35:21.364Z,99927.19
2022-11-03T21:37:49.484Z,99919.28
2022-11-03T21:40:17.633Z,99913.00
2022-11-03T21:43:04.059Z,99910.38
2022-11-03T21:45:32.140Z,99903.16
2022-11-03T21:48:17.829Z,99907.38
2022-11-03T21:50:46.151Z,99905.63
2022-11-03T21:53:14.138Z,99908.56
2022-11-03T21:55:42.201Z,99905.50
2022-11-03T21:58:11.331Z,99905.09
2022-11-03T22:00:39.085Z,99913.25
2022-11-03T22:03:09.614Z,99910.09
2022-11-03T22:05:37.864Z,99919.44
2022-11-03T22:08:08.629Z,99920.38
2022-11-03T22:10:39.432Z,99919.19
2022-11-03T22:13:07.512Z,99926.66
2022-11-03T22:15:54.370Z,99922.91
2022-11-03T22:18:22.150Z,99932.44
2022-11-03T22:21:07.442Z,99942.16
2022-11-03T22:23:52.896Z,99929.91
2022-11-03T22:26:38.280Z,99944.63
2022-11-03T22:29:25.761Z,99945.84
2022-11-03T22:31:54.837Z,99926.72
2022-11-03T22:34:40.114Z,99929.44
2022-11-03T22:37:07.840Z,99922.44
2022-11-03T22:39:53.711Z,99895.41
2022-11-03T22:42:39.200Z,99900.22
2022-11-03T22:45:24.873Z,99894.91
2022-11-03T22:47:57.136Z,99886.56
2022-11-03T22:50:25.536Z,99876.00
2022-11-03T22:52:53.311Z,99875.44
2022-11-03T22:55:20.014Z,99873.97
2022-11-03T22:57:47.702Z,99849.56
2022-11-03T23:00:17.031Z,99852.47
2022-11-03T23:02:44.752Z,99848.72
2022-11-03T23:05:13.914Z,99835.19
2022-11-03T23:07:41.905Z,99811.28
2022-11-03T23:10:10.049Z,99826.88
2022-11-03T23:12:37.779Z,99822.91
2022-11-03T23:15:23.869Z,99811.22
2022-11-03T23:18:14.487Z,99807.19
2022-11-03T23:21:00.974Z,99814.38
2022-11-03T23:23:46.805Z,99812.94
2022-11-03T23:26:14.688Z,99811.78
2022-11-03T23:28:42.774Z,99805.16
2022-11-03T23:31:11.085Z,99794.09
2022-11-03T23:33:39.237Z,99792.97
2022-11-03T23:36:10.795Z,99804.28
2022-11-03T23:38:39.198Z,99775.91
2022-11-03T23:41:09.618Z,99788.94
2022-11-03T23:43:37.373Z,99793.59
2022-11-03T23:46:23.153Z,99773.06
2022-11-03T23:48:52.169Z,99773.44
2022-11-03T23:51:22.396Z,99764.38
2022-11-03T23:53:50.772Z,99762.41
2022-11-03T23:56:38.194Z,99767.84
2022-11-03T23:59:06.593Z,99774.69
